This is the latest recevied weather packets stored in our database for station/object SP9TKN-1. If no packets are shown the sender has not sent any weather packets the latest 10 day(s).
| Time | Temp. | Humidity | Pressure | Rain* | Wind** | Luminosity | Snow |
|---|---|---|---|---|---|---|---|
| 1788724215 | 15.56° C | 54% | 1002.6 hPa | - | - | - | - |
| 1788723315 | 15.56° C | 54% | 1002.6 hPa | - | - | - | - |
| 1788721515 | 16.11° C | 52% | 1002.3 hPa | - | - | - | - |
| 1788709813 | 18.33° C | 39% | 1001.4 hPa | - | - | - | - |
| 1788703515 | 20° C | 38% | 1001.1 hPa | - | - | - | - |
| 1788698114 | 20° C | 39% | 1000.6 hPa | - | - | - | - |
| 1788692714 | 20° C | 42% | 1000.7 hPa | - | - | - | - |
| 1788690913 | 20.56° C | 41% | 1000.6 hPa | - | - | - | - |
| 1788690013 | 20° C | 43% | 1000.5 hPa | - | - | - | - |
| 1788688213 | 18.89° C | 48% | 1000.3 hPa | - | - | - | - |
| 1788687313 | 18.89° C | 48% | 1000.2 hPa | - | - | - | - |
| 1788686413 | 18.33° C | 49% | 1000.4 hPa | - | - | - | - |
| 1788683713 | 18.33° C | 50% | 1000.3 hPa | - | - | - | - |
| 1788680116 | 17.22° C | 53% | 999.6 hPa | - | - | - | - |
| 1788679212 | 17.22° C | 54% | 999.5 hPa | - | - | - | - |
| 1788678312 | 16.67° C | 57% | 999.3 hPa | - | - | - | - |
| 1788676512 | 15.56° C | 62% | 999 hPa | - | - | - | - |
| 1788672912 | 14.44° C | 66% | 998.4 hPa | - | - | - | - |
| 1788672011 | 15° C | 66% | 998.3 hPa | - | - | - | - |
| 1788671111 | 15° C | 65% | 998.1 hPa | - | - | - | - |
| 1788670211 | 15° C | 66% | 998 hPa | - | - | - | - |
| 1788669312 | 14.44° C | 66% | 997.8 hPa | - | - | - | - |
| 1788668411 | 14.44° C | 66% | 997.7 hPa | - | - | - | - |
| 1788667511 | 14.44° C | 66% | 997.5 hPa | - | - | - | - |
| 1788666611 | 14.44° C | 66% | 997.6 hPa | - | - | - | - |
* Rain since midnight (hover to see other rain measurements)
** Current wind speed in m/s (hover to see current wind gust speed)